createdAt,value
2019-03-01T00:01:23.958Z,18.62
2019-03-01T00:03:55.485Z,20.23
2019-03-01T00:06:41.704Z,24.87
2019-03-01T00:09:13.250Z,20.77
2019-03-01T00:12:03.135Z,19.15
2019-03-01T00:14:56.131Z,17.93
2019-03-01T00:17:36.957Z,22.15
2019-03-01T00:20:32.795Z,23.60
2019-03-01T00:23:12.620Z,26.73
2019-03-01T00:25:55.678Z,23.80
2019-03-01T00:28:45.393Z,23.23
2019-03-01T00:31:22.411Z,18.23
2019-03-01T00:34:05.826Z,17.47
2019-03-01T00:36:40.328Z,22.73
2019-03-01T00:39:14.873Z,22.48
2019-03-01T00:41:49.351Z,20.00
2019-03-01T00:44:40.186Z,19.93
2019-03-01T00:47:08.857Z,16.47
2019-03-01T00:49:37.641Z,17.60
2019-03-01T00:52:06.501Z,16.25
2019-03-01T00:54:35.135Z,14.53
2019-03-01T00:57:04.053Z,14.15
2019-03-01T00:59:40.048Z,18.67
2019-03-01T01:02:08.605Z,18.07
2019-03-01T01:04:37.325Z,17.23
2019-03-01T01:07:05.982Z,13.10
2019-03-01T01:09:34.556Z,17.12
2019-03-01T01:12:03.042Z,14.33
2019-03-01T01:14:31.631Z,13.00
2019-03-01T01:17:00.351Z,15.43
2019-03-01T01:19:28.915Z,16.57
2019-03-01T01:21:57.508Z,17.05
2019-03-01T01:24:26.123Z,17.00
2019-03-01T01:26:54.680Z,22.77
2019-03-01T01:29:23.286Z,19.60
2019-03-01T01:31:51.913Z,21.40
2019-03-01T01:34:20.548Z,32.10
2019-03-01T01:36:49.074Z,32.75
2019-03-01T01:39:17.622Z,22.77
2019-03-01T01:41:46.252Z,26.43
2019-03-01T01:44:15.011Z,25.65
2019-03-01T01:46:43.513Z,21.13
2019-03-01T01:49:12.074Z,18.87
2019-03-01T01:51:40.961Z,17.45
2019-03-01T01:54:09.604Z,19.52
2019-03-01T01:56:38.085Z,13.05
2019-03-01T01:59:06.743Z,13.65
2019-03-01T02:01:35.290Z,14.83
2019-03-01T02:04:03.909Z,10.45
2019-03-01T02:06:32.572Z,11.43
2019-03-01T02:09:01.315Z,13.00
2019-03-01T02:11:29.881Z,10.03
2019-03-01T02:13:58.544Z,9.73
2019-03-01T02:16:27.171Z,9.10
2019-03-01T02:18:58.005Z,8.60
2019-03-01T02:21:26.044Z,11.90
2019-03-01T02:23:54.602Z,16.95
2019-03-01T02:26:23.249Z,7.92
2019-03-01T02:28:52.068Z,11.08
2019-03-01T02:31:20.554Z,11.30
2019-03-01T02:33:49.116Z,10.32
2019-03-01T02:36:17.778Z,8.03
2019-03-01T02:38:46.338Z,14.87
2019-03-01T02:41:14.956Z,15.13
2019-03-01T02:43:43.545Z,11.25
2019-03-01T02:46:12.121Z,12.70
2019-03-01T02:48:40.677Z,10.60
2019-03-01T02:51:09.342Z,15.38
2019-03-01T02:53:37.903Z,16.80
2019-03-01T02:56:06.462Z,13.20
2019-03-01T02:58:35.051Z,11.65
2019-03-01T03:01:03.686Z,6.33
2019-03-01T03:03:32.303Z,12.68
2019-03-01T03:06:02.466Z,13.43
2019-03-01T03:08:31.038Z,14.40
2019-03-01T03:10:59.662Z,8.53
2019-03-01T03:13:28.507Z,12.95
2019-03-01T03:15:57.134Z,14.23
2019-03-01T03:18:25.689Z,9.70
2019-03-01T03:20:54.254Z,8.58
2019-03-01T03:23:22.861Z,13.35
2019-03-01T03:25:51.484Z,13.93
2019-03-01T03:28:20.028Z,5.85
2019-03-01T03:30:48.583Z,8.13
2019-03-01T03:33:17.258Z,8.83
2019-03-01T03:35:45.884Z,8.43
2019-03-01T03:38:14.480Z,7.15
2019-03-01T03:40:43.043Z,5.43
2019-03-01T03:43:11.858Z,10.50
2019-03-01T03:45:40.533Z,5.87
2019-03-01T03:48:09.090Z,12.18
2019-03-01T03:50:37.639Z,9.20
2019-03-01T03:53:06.232Z,9.90
2019-03-01T03:55:34.877Z,9.33
2019-03-01T03:58:03.497Z,11.08
2019-03-01T04:00:32.091Z,8.25
2019-03-01T04:03:00.650Z,6.12
2019-03-01T04:05:29.129Z,9.35
2019-03-01T04:07:57.987Z,10.85
2019-03-01T04:10:26.661Z,9.85
2019-03-01T04:12:55.227Z,16.37
2019-03-01T04:15:23.802Z,8.08
2019-03-01T04:17:52.354Z,8.20
2019-03-01T04:20:21.285Z,13.80
2019-03-01T04:22:49.906Z,15.98
2019-03-01T04:25:18.389Z,10.10
2019-03-01T04:27:46.957Z,12.58
2019-03-01T04:30:17.273Z,11.68
2019-03-01T04:32:45.995Z,15.60
2019-03-01T04:35:15.091Z,11.20
2019-03-01T04:37:44.133Z,12.63
2019-03-01T04:40:16.053Z,13.58
2019-03-01T04:42:44.769Z,15.18
2019-03-01T04:45:17.710Z,15.83
2019-03-01T04:47:46.270Z,18.07
2019-03-01T04:50:14.956Z,13.03
2019-03-01T04:52:43.709Z,15.95
2019-03-01T04:55:20.910Z,17.48
2019-03-01T04:57:49.494Z,27.02
2019-03-01T05:00:25.387Z,19.10
2019-03-01T05:02:54.114Z,26.52
2019-03-01T05:05:22.791Z,15.15
2019-03-01T05:07:51.351Z,15.53
2019-03-01T05:10:19.967Z,33.75
2019-03-01T05:12:48.638Z,27.30
2019-03-01T05:15:22.263Z,25.02
2019-03-01T05:17:50.833Z,20.25
2019-03-01T05:20:19.622Z,31.02
2019-03-01T05:22:48.195Z,38.42
2019-03-01T05:25:16.805Z,55.50
2019-03-01T05:27:45.429Z,42.17
2019-03-01T05:30:17.942Z,44.15
2019-03-01T05:32:46.580Z,23.15
2019-03-01T05:35:15.321Z,29.40
2019-03-01T05:37:43.948Z,33.73
2019-03-01T05:40:16.312Z,28.52
2019-03-01T05:42:45.172Z,42.40
2019-03-01T05:45:16.585Z,32.85
2019-03-01T05:47:45.149Z,29.48
2019-03-01T05:50:15.120Z,24.40
2019-03-01T05:52:43.764Z,14.13
2019-03-01T05:55:12.996Z,32.48
2019-03-01T05:58:17.621Z,20.37
2019-03-01T06:00:46.446Z,25.72
2019-03-01T06:03:46.121Z,21.70
2019-03-01T06:06:35.267Z,18.20
2019-03-01T06:09:21.655Z,30.65
2019-03-01T06:12:12.872Z,23.47
2019-03-01T06:14:44.464Z,21.62
2019-03-01T06:17:44.802Z,15.40
2019-03-01T06:20:40.409Z,17.77
2019-03-01T06:23:23.811Z,23.57
2019-03-01T06:26:11.738Z,20.23
2019-03-01T06:28:43.359Z,30.77
2019-03-01T06:31:17.464Z,24.20
2019-03-01T06:34:11.487Z,31.55
2019-03-01T06:37:07.148Z,17.90
2019-03-01T06:39:42.856Z,29.90
2019-03-01T06:42:38.647Z,19.32
2019-03-01T06:45:25.030Z,18.42
2019-03-01T06:47:53.665Z,29.72
2019-03-01T06:50:23.918Z,24.45
2019-03-01T06:52:52.555Z,23.05
2019-03-01T06:55:41.550Z,23.10
2019-03-01T06:58:13.292Z,20.20
2019-03-01T07:00:50.230Z,20.70
2019-03-01T07:03:13.908Z,23.38
2019-03-01T07:05:42.454Z,15.65
2019-03-01T07:08:11.012Z,18.65
2019-03-01T07:10:39.685Z,26.87
2019-03-01T07:13:08.310Z,21.15
2019-03-01T07:15:36.952Z,21.25
2019-03-01T07:18:05.569Z,25.45
2019-03-01T07:20:34.205Z,34.30
2019-03-01T07:23:02.792Z,41.10
2019-03-01T07:25:31.399Z,24.23
2019-03-01T07:28:00.031Z,25.92
2019-03-01T07:30:34.813Z,27.73
2019-03-01T07:33:03.501Z,27.37
2019-03-01T07:35:32.132Z,23.35
2019-03-01T07:38:00.692Z,26.70
2019-03-01T07:40:29.229Z,22.95
2019-03-01T07:42:57.789Z,19.05
2019-03-01T07:45:26.502Z,22.50
2019-03-01T07:47:55.434Z,24.98
2019-03-01T07:50:23.935Z,19.25
2019-03-01T07:52:52.493Z,21.52
2019-03-01T07:55:21.189Z,16.35
2019-03-01T07:57:50.640Z,24.63
2019-03-01T08:00:19.342Z,23.98
2019-03-01T08:02:47.950Z,18.23
2019-03-01T08:05:16.796Z,17.48
2019-03-01T08:07:55.419Z,20.23
2019-03-01T08:10:20.727Z,23.92
2019-03-01T08:12:47.516Z,24.37
2019-03-01T08:15:17.482Z,21.33
2019-03-01T08:17:46.164Z,17.80
2019-03-01T08:20:16.301Z,23.70
2019-03-01T08:22:48.935Z,19.98
2019-03-01T08:25:22.912Z,26.12
2019-03-01T08:27:46.294Z,18.37
2019-03-01T08:30:19.469Z,20.92
2019-03-01T08:32:48.351Z,18.70
2019-03-01T08:35:18.482Z,34.55
2019-03-01T08:37:49.774Z,26.42
2019-03-01T08:40:18.192Z,22.32
2019-03-01T08:42:46.749Z,20.48
2019-03-01T08:45:20.142Z,19.45
2019-03-01T08:47:49.276Z,22.50
2019-03-01T08:50:18.481Z,22.37
2019-03-01T08:52:47.367Z,24.60
2019-03-01T08:55:22.198Z,23.12
2019-03-01T08:57:51.407Z,50.55
2019-03-01T09:00:28.850Z,26.95
2019-03-01T09:03:00.191Z,20.50
2019-03-01T09:05:28.821Z,21.65
2019-03-01T09:07:57.442Z,26.37
2019-03-01T09:10:29.189Z,19.92
2019-03-01T09:12:56.245Z,23.85
2019-03-01T09:15:24.897Z,17.67
2019-03-01T09:17:53.455Z,22.90
2019-03-01T09:20:22.022Z,18.32
2019-03-01T09:22:50.667Z,15.75
2019-03-01T09:25:19.228Z,21.37
2019-03-01T09:27:47.866Z,21.48
2019-03-01T09:30:26.626Z,27.48
2019-03-01T09:32:55.196Z,20.23
2019-03-01T09:35:39.734Z,27.00
2019-03-01T09:38:08.449Z,27.52
2019-03-01T09:40:37.154Z,30.30
2019-03-01T09:43:06.122Z,29.55
2019-03-01T09:45:36.463Z,18.42
2019-03-01T09:48:05.247Z,31.95
2019-03-01T09:50:34.476Z,18.85
2019-03-01T09:53:04.202Z,22.82
2019-03-01T09:55:34.746Z,31.82
2019-03-01T09:58:03.295Z,26.42
2019-03-01T10:00:34.888Z,18.25
2019-03-01T10:03:03.518Z,22.58
2019-03-01T10:05:32.128Z,22.70
2019-03-01T10:08:00.619Z,19.02
2019-03-01T10:10:31.699Z,20.90
2019-03-01T10:13:00.302Z,22.77
2019-03-01T10:15:29.026Z,21.50
2019-03-01T10:17:57.591Z,18.77
2019-03-01T10:20:26.261Z,14.30
2019-03-01T10:22:54.757Z,25.50
2019-03-01T10:25:23.491Z,22.37
2019-03-01T10:27:52.102Z,18.85
2019-03-01T10:30:28.411Z,24.90
2019-03-01T10:32:57.237Z,19.55
2019-03-01T10:35:25.876Z,16.57
2019-03-01T10:37:54.437Z,20.70
2019-03-01T10:40:25.042Z,16.87
2019-03-01T10:42:53.603Z,19.42
2019-03-01T10:45:24.241Z,20.97
2019-03-01T10:47:52.825Z,18.25
2019-03-01T10:50:21.470Z,21.48
2019-03-01T10:52:50.518Z,19.98
2019-03-01T10:55:19.924Z,18.67
2019-03-01T10:57:48.958Z,23.07
2019-03-01T11:00:22.778Z,19.50
2019-03-01T11:02:51.613Z,19.62
2019-03-01T11:05:20.285Z,27.17
2019-03-01T11:07:50.166Z,23.15
2019-03-01T11:10:38.766Z,19.90
2019-03-01T11:13:09.644Z,22.52
2019-03-01T11:15:38.269Z,20.90
2019-03-01T11:18:07.007Z,21.57
2019-03-01T11:20:35.688Z,21.52
2019-03-01T11:23:04.321Z,14.10
2019-03-01T11:25:32.903Z,20.32
2019-03-01T11:28:01.515Z,24.65
2019-03-01T11:30:35.759Z,18.77
2019-03-01T11:33:04.393Z,18.82
2019-03-01T11:35:33.285Z,18.50
2019-03-01T11:38:01.932Z,24.00
2019-03-01T11:40:32.925Z,20.20
2019-03-01T11:43:01.841Z,23.90
2019-03-01T11:45:30.431Z,23.42
2019-03-01T11:47:58.988Z,14.75
2019-03-01T11:50:27.655Z,17.65
2019-03-01T11:52:56.490Z,20.70
2019-03-01T11:55:25.151Z,19.50
2019-03-01T11:57:53.710Z,24.80
2019-03-01T12:00:23.827Z,19.23
2019-03-01T12:02:52.752Z,24.07
2019-03-01T12:05:21.628Z,19.73
2019-03-01T12:07:50.322Z,25.52
2019-03-01T12:10:31.822Z,24.20
2019-03-01T12:13:00.471Z,21.07
2019-03-01T12:15:29.123Z,20.00
2019-03-01T12:17:57.721Z,23.55
2019-03-01T12:20:28.461Z,18.70
2019-03-01T12:22:57.099Z,18.48
2019-03-01T12:25:25.947Z,19.52
2019-03-01T12:27:54.509Z,18.77
2019-03-01T12:30:26.844Z,19.23
2019-03-01T12:32:55.694Z,23.57
2019-03-01T12:35:24.332Z,22.73
2019-03-01T12:37:53.066Z,20.40
2019-03-01T12:40:29.202Z,15.13
2019-03-01T12:42:58.039Z,24.25
2019-03-01T12:45:26.664Z,19.17
2019-03-01T12:47:55.334Z,16.42
2019-03-01T12:50:23.975Z,25.85
2019-03-01T12:52:52.714Z,21.65
2019-03-01T12:55:26.538Z,21.77
2019-03-01T12:57:55.277Z,21.93
2019-03-01T13:00:29.381Z,22.20
2019-03-01T13:02:58.161Z,19.35
2019-03-01T13:05:29.204Z,22.52
2019-03-01T13:07:57.006Z,17.70
2019-03-01T13:10:33.319Z,20.68
2019-03-01T13:13:03.694Z,17.82
2019-03-01T13:15:32.994Z,22.20
2019-03-01T13:18:03.252Z,16.00
2019-03-01T13:20:33.863Z,17.95
2019-03-01T13:23:05.006Z,16.17
2019-03-01T13:25:32.750Z,13.93
2019-03-01T13:28:01.268Z,18.40
2019-03-01T13:30:32.592Z,19.05
2019-03-01T13:33:02.430Z,14.07
2019-03-01T13:35:30.677Z,13.45
2019-03-01T13:37:59.195Z,17.35
2019-03-01T13:40:27.979Z,20.30
2019-03-01T13:42:56.596Z,17.95
2019-03-01T13:45:26.708Z,17.15
2019-03-01T13:47:55.464Z,22.07
2019-03-01T13:50:24.129Z,17.95
2019-03-01T13:52:52.777Z,11.90
2019-03-01T13:55:23.719Z,14.03
2019-03-01T13:57:51.800Z,18.82
2019-03-01T14:00:21.635Z,13.80
2019-03-01T14:02:50.536Z,16.48
2019-03-01T14:05:19.678Z,13.65
2019-03-01T14:07:51.986Z,20.72
2019-03-01T14:10:21.445Z,19.32
2019-03-01T14:12:50.022Z,18.57
2019-03-01T14:15:18.748Z,19.75
2019-03-01T14:17:47.425Z,19.25
2019-03-01T14:20:20.399Z,20.17
2019-03-01T14:22:49.265Z,15.30
2019-03-01T14:25:18.276Z,15.95
2019-03-01T14:27:47.029Z,12.10
2019-03-01T14:30:25.201Z,12.00
2019-03-01T14:32:57.645Z,12.82
2019-03-01T14:35:26.890Z,9.18
2019-03-01T14:37:55.678Z,9.85
2019-03-01T14:40:24.470Z,11.95
2019-03-01T14:42:52.948Z,11.40
2019-03-01T14:45:32.131Z,12.70
2019-03-01T14:48:00.772Z,14.83
2019-03-01T14:50:33.686Z,21.62
2019-03-01T14:53:00.948Z,13.28
2019-03-01T14:55:35.705Z,13.65
2019-03-01T14:58:10.122Z,12.85
2019-03-01T15:00:50.988Z,13.72
2019-03-01T15:03:32.610Z,16.97
2019-03-01T15:06:01.314Z,13.93
2019-03-01T15:08:29.884Z,13.00
2019-03-01T15:11:00.626Z,17.00
2019-03-01T15:13:31.331Z,22.25
2019-03-01T15:16:01.093Z,19.10
2019-03-01T15:18:32.430Z,18.80
2019-03-01T15:21:02.451Z,20.82
2019-03-01T15:23:30.933Z,22.85
2019-03-01T15:25:59.468Z,20.62
2019-03-01T15:28:28.116Z,22.62
2019-03-01T15:30:57.380Z,23.10
2019-03-01T15:33:25.970Z,21.02
2019-03-01T15:35:54.492Z,21.33
2019-03-01T15:38:23.936Z,26.60
2019-03-01T15:40:53.603Z,24.30
2019-03-01T15:43:22.163Z,45.00
2019-03-01T15:45:50.651Z,19.87
2019-03-01T15:48:19.410Z,19.67
2019-03-01T15:50:48.048Z,25.35
2019-03-01T15:53:16.549Z,23.83
2019-03-01T15:55:45.213Z,20.43
2019-03-01T15:58:13.849Z,21.60
2019-03-01T16:00:48.165Z,23.22
2019-03-01T16:03:16.794Z,21.65
2019-03-01T16:05:45.685Z,23.20
2019-03-01T16:08:14.367Z,24.75
2019-03-01T16:10:43.006Z,22.37
2019-03-01T16:13:13.017Z,25.52
2019-03-01T16:15:41.977Z,21.82
2019-03-01T16:18:10.468Z,22.75
2019-03-01T16:20:39.145Z,26.17
2019-03-01T16:23:07.863Z,23.60
2019-03-01T16:25:36.590Z,27.35
2019-03-01T16:28:05.255Z,22.77
2019-03-01T16:30:33.931Z,35.68
2019-03-01T16:33:02.567Z,34.90
2019-03-01T16:35:31.196Z,36.93
2019-03-01T16:38:02.455Z,42.62
2019-03-01T16:40:31.133Z,43.80
2019-03-01T16:42:59.790Z,50.83
2019-03-01T16:45:28.466Z,52.60
2019-03-01T16:47:56.979Z,59.42
2019-03-01T16:50:25.600Z,49.53
2019-03-01T16:52:54.272Z,37.28
2019-03-01T16:55:30.533Z,42.60
2019-03-01T16:58:06.882Z,45.98
2019-03-01T17:00:29.587Z,33.73
2019-03-01T17:03:16.614Z,31.20
2019-03-01T17:05:43.332Z,28.52
2019-03-01T17:08:11.832Z,33.83
2019-03-01T17:10:40.373Z,30.77
2019-03-01T17:13:09.000Z,25.52
2019-03-01T17:15:37.639Z,26.68
2019-03-01T17:18:11.322Z,37.08
2019-03-01T17:20:38.438Z,37.42
2019-03-01T17:23:07.222Z,41.30
2019-03-01T17:25:35.920Z,35.73
2019-03-01T17:28:04.564Z,38.48
2019-03-01T17:30:33.197Z,43.95
2019-03-01T17:33:01.986Z,41.20
2019-03-01T17:35:30.469Z,45.92
2019-03-01T17:37:59.097Z,29.35
2019-03-01T17:40:29.410Z,28.57
2019-03-01T17:42:57.985Z,28.90
2019-03-01T17:45:27.031Z,39.00
2019-03-01T17:47:55.727Z,47.38
2019-03-01T17:50:24.358Z,46.18
2019-03-01T17:52:52.937Z,52.25
2019-03-01T17:55:26.074Z,61.33
2019-03-01T17:57:54.711Z,73.37
2019-03-01T18:00:37.370Z,73.72
2019-03-01T18:03:06.012Z,58.75
2019-03-01T18:05:37.079Z,65.55
2019-03-01T18:08:05.374Z,65.97
2019-03-01T18:10:33.932Z,79.07
2019-03-01T18:13:02.589Z,69.77
2019-03-01T18:15:31.259Z,79.37
2019-03-01T18:17:59.881Z,77.37
2019-03-01T18:20:28.501Z,86.87
2019-03-01T18:22:59.363Z,79.60
2019-03-01T18:25:27.657Z,75.40
2019-03-01T18:27:56.153Z,64.72
2019-03-01T18:30:27.317Z,65.72
2019-03-01T18:32:55.873Z,75.57
2019-03-01T18:35:24.501Z,69.97
2019-03-01T18:37:54.891Z,60.83
2019-03-01T18:40:23.589Z,73.72
2019-03-01T18:42:52.225Z,70.08
2019-03-01T18:45:23.331Z,88.22
2019-03-01T18:47:51.953Z,113.83
2019-03-01T18:50:35.253Z,110.08
2019-03-01T18:53:04.334Z,105.37
2019-03-01T18:55:33.279Z,104.38
2019-03-01T18:58:01.955Z,94.05
2019-03-01T19:00:36.898Z,105.32
2019-03-01T19:03:06.574Z,86.55
2019-03-01T19:05:36.620Z,94.52
2019-03-01T19:08:06.110Z,87.53
2019-03-01T19:10:35.791Z,106.30
2019-03-01T19:13:04.640Z,101.18
2019-03-01T19:15:33.475Z,80.47
2019-03-01T19:18:02.356Z,75.03
2019-03-01T19:20:34.120Z,69.32
2019-03-01T19:23:02.759Z,64.05
2019-03-01T19:25:31.481Z,55.88
2019-03-01T19:28:00.065Z,72.03
2019-03-01T19:30:28.685Z,54.38
2019-03-01T19:32:58.963Z,48.17
2019-03-01T19:35:29.730Z,59.85
2019-03-01T19:37:57.938Z,58.85
2019-03-01T19:40:26.602Z,69.60
2019-03-01T19:42:57.224Z,59.93
2019-03-01T19:45:25.326Z,61.13
2019-03-01T19:47:53.991Z,61.60
2019-03-01T19:50:25.866Z,61.83
2019-03-01T19:52:54.640Z,63.20
2019-03-01T19:55:23.184Z,62.25
2019-03-01T19:57:51.806Z,72.85
2019-03-01T20:00:23.097Z,65.20
2019-03-01T20:02:51.594Z,63.52
2019-03-01T20:05:27.781Z,59.20
2019-03-01T20:07:56.109Z,63.70
2019-03-01T20:10:25.041Z,56.68
2019-03-01T20:12:53.691Z,58.78
2019-03-01T20:15:24.775Z,51.70
2019-03-01T20:17:53.702Z,53.78
2019-03-01T20:20:23.919Z,52.13
2019-03-01T20:22:54.184Z,52.75
2019-03-01T20:25:22.942Z,53.45
2019-03-01T20:27:51.618Z,49.05
2019-03-01T20:30:30.667Z,42.03
2019-03-01T20:32:59.543Z,49.23
2019-03-01T20:35:28.194Z,41.18
2019-03-01T20:38:00.074Z,47.38
2019-03-01T20:40:28.431Z,46.35
2019-03-01T20:43:01.315Z,46.83
2019-03-01T20:45:31.228Z,39.73
2019-03-01T20:48:00.046Z,36.88
2019-03-01T20:50:28.677Z,42.25
2019-03-01T20:52:57.227Z,39.15
2019-03-01T20:55:25.755Z,32.60
2019-03-01T20:57:54.397Z,40.52
2019-03-01T21:00:26.115Z,41.75
2019-03-01T21:02:55.424Z,44.93
2019-03-01T21:05:25.118Z,24.00
2019-03-01T21:08:00.193Z,27.67
2019-03-01T21:10:30.130Z,24.50
2019-03-01T21:12:58.699Z,27.87
2019-03-01T21:15:27.291Z,32.20
2019-03-01T21:17:56.850Z,31.97
2019-03-01T21:20:25.976Z,31.20
2019-03-01T21:22:54.500Z,33.38
2019-03-01T21:25:24.319Z,28.12
2019-03-01T21:27:52.949Z,29.00
2019-03-01T21:30:29.806Z,22.00
2019-03-01T21:32:58.431Z,29.57
2019-03-01T21:35:27.106Z,28.42
2019-03-01T21:37:55.679Z,27.77
2019-03-01T21:40:24.159Z,27.00
2019-03-01T21:42:57.304Z,27.62
2019-03-01T21:45:24.229Z,27.67
2019-03-01T21:47:52.801Z,24.35
2019-03-01T21:50:21.482Z,24.15
2019-03-01T21:52:50.113Z,31.25
2019-03-01T21:55:28.645Z,31.00
2019-03-01T21:57:57.639Z,32.48
2019-03-01T22:00:31.500Z,34.40
2019-03-01T22:03:00.481Z,55.05
2019-03-01T22:05:29.105Z,48.05
2019-03-01T22:07:57.608Z,43.02
2019-03-01T22:10:26.160Z,43.35
2019-03-01T22:12:56.874Z,47.03
2019-03-01T22:15:29.364Z,46.95
2019-03-01T22:17:58.137Z,52.75
2019-03-01T22:20:26.706Z,49.10
2019-03-01T22:22:55.344Z,47.88
2019-03-01T22:25:24.012Z,49.75
2019-03-01T22:27:52.508Z,66.67
2019-03-01T22:30:31.699Z,65.85
2019-03-01T22:33:00.358Z,63.40
2019-03-01T22:35:29.000Z,59.83
2019-03-01T22:38:00.851Z,60.25
2019-03-01T22:40:29.203Z,50.98
2019-03-01T22:42:58.098Z,56.40
2019-03-01T22:45:26.703Z,46.23
2019-03-01T22:47:55.339Z,63.48
2019-03-01T22:50:23.976Z,53.55
2019-03-01T22:52:52.508Z,37.42
2019-03-01T22:55:21.534Z,51.80
2019-03-01T22:57:50.173Z,43.65
2019-03-01T23:00:47.566Z,43.98
2019-03-01T23:03:18.932Z,40.05
2019-03-01T23:05:47.341Z,41.02
2019-03-01T23:08:16.118Z,42.05
2019-03-01T23:10:44.729Z,36.68
2019-03-01T23:13:16.824Z,31.90
2019-03-01T23:15:44.582Z,39.30
2019-03-01T23:18:13.408Z,36.45
2019-03-01T23:20:42.557Z,36.35
2019-03-01T23:23:11.158Z,38.67
2019-03-01T23:25:42.925Z,31.73
2019-03-01T23:28:10.027Z,32.48
2019-03-01T23:30:38.797Z,32.93
2019-03-01T23:33:07.426Z,43.05
2019-03-01T23:35:36.092Z,35.43
2019-03-01T23:38:05.072Z,36.93
2019-03-01T23:40:35.866Z,40.00
2019-03-01T23:43:03.922Z,38.42
2019-03-01T23:45:32.598Z,39.75
2019-03-01T23:48:01.090Z,38.65
2019-03-01T23:50:31.485Z,36.80
2019-03-01T23:53:00.167Z,37.25
2019-03-01T23:55:28.865Z,37.85
2019-03-01T23:58:06.102Z,45.25
